createdAt,value
2017-08-01T00:00:06.401Z,23.10
2017-08-01T00:02:35.734Z,23.00
2017-08-01T00:05:05.049Z,23.10
2017-08-01T00:07:34.402Z,23.10
2017-08-01T00:10:03.713Z,23.10
2017-08-01T00:12:33.025Z,23.00
2017-08-01T00:15:03.117Z,22.80
2017-08-01T00:17:32.428Z,22.80
2017-08-01T00:20:01.752Z,22.80
2017-08-01T00:22:31.829Z,22.70
2017-08-01T00:25:01.153Z,22.70
2017-08-01T00:27:30.466Z,22.70
2017-08-01T00:29:59.794Z,22.60
2017-08-01T00:32:29.117Z,22.60
2017-08-01T00:34:58.440Z,22.60
2017-08-01T00:37:27.749Z,22.60
2017-08-01T00:39:57.072Z,22.60
2017-08-01T00:42:26.376Z,22.60
2017-08-01T00:44:56.464Z,22.50
2017-08-01T00:47:25.789Z,22.50
2017-08-01T00:49:55.108Z,22.50
2017-08-01T00:52:24.409Z,22.50
2017-08-01T00:54:54.510Z,22.50
2017-08-01T00:57:23.813Z,22.50
2017-08-01T00:59:53.909Z,22.40
2017-08-01T01:02:23.222Z,22.50
2017-08-01T01:04:52.556Z,22.40
2017-08-01T01:07:21.871Z,22.40
2017-08-01T01:09:51.176Z,22.30
2017-08-01T01:12:20.504Z,22.30
2017-08-01T01:14:49.800Z,22.30
2017-08-01T01:17:19.125Z,22.40
2017-08-01T01:19:49.195Z,22.30
2017-08-01T01:22:18.524Z,22.30
2017-08-01T01:24:47.836Z,22.30
2017-08-01T01:27:17.925Z,22.20
2017-08-01T01:29:47.229Z,22.20
2017-08-01T01:32:16.559Z,22.20
2017-08-01T01:34:46.640Z,22.10
2017-08-01T01:37:15.955Z,22.10
2017-08-01T01:39:45.267Z,22.10
2017-08-01T01:42:14.597Z,22.10
2017-08-01T01:44:43.904Z,22.10
2017-08-01T01:47:13.232Z,22.10
2017-08-01T01:49:42.540Z,22.10
2017-08-01T01:52:11.863Z,22.10
2017-08-01T01:54:41.176Z,22.00
2017-08-01T01:57:10.501Z,22.00
2017-08-01T01:59:40.577Z,21.80
2017-08-01T02:02:09.908Z,21.70
2017-08-01T02:04:39.985Z,21.70
2017-08-01T02:07:09.319Z,21.70
2017-08-01T02:09:39.403Z,21.90
2017-08-01T02:12:08.725Z,21.90
2017-08-01T02:14:38.057Z,22.10
2017-08-01T02:17:07.373Z,22.20
2017-08-01T02:19:36.687Z,22.20
2017-08-01T02:22:06.008Z,22.40
2017-08-01T02:24:35.330Z,22.50
2017-08-01T02:27:04.631Z,22.50
2017-08-01T02:29:33.953Z,22.50
2017-08-01T02:32:03.265Z,22.50
2017-08-01T02:34:33.361Z,22.40
2017-08-01T02:37:02.678Z,22.40
2017-08-01T02:39:32.001Z,22.40
2017-08-01T02:42:01.347Z,22.30
2017-08-01T02:44:30.677Z,22.30
2017-08-01T02:46:59.982Z,22.30
2017-08-01T02:49:29.308Z,22.30
2017-08-01T02:51:58.621Z,22.30
2017-08-01T02:54:27.952Z,22.30
2017-08-01T02:56:57.256Z,22.20
2017-08-01T02:59:26.593Z,22.20
2017-08-01T03:01:56.678Z,22.10
2017-08-01T03:04:26.005Z,22.10
2017-08-01T03:06:55.348Z,22.10
2017-08-01T03:09:24.666Z,22.10
2017-08-01T03:11:53.989Z,22.10
2017-08-01T03:14:23.305Z,22.20
2017-08-01T03:16:52.640Z,22.20
2017-08-01T03:19:21.962Z,22.10
2017-08-01T03:21:51.300Z,22.00
2017-08-01T03:24:20.620Z,22.00
2017-08-01T03:26:49.951Z,22.10
2017-08-01T03:29:19.271Z,22.10
2017-08-01T03:31:48.631Z,22.10
2017-08-01T03:34:17.968Z,22.00
2017-08-01T03:36:47.287Z,22.10
2017-08-01T03:39:16.608Z,22.10
2017-08-01T03:41:45.937Z,22.10
2017-08-01T03:44:16.015Z,22.20
2017-08-01T03:46:45.406Z,22.20
2017-08-01T03:49:14.718Z,22.20
2017-08-01T03:51:44.059Z,22.20
2017-08-01T03:54:13.450Z,22.20
2017-08-01T03:56:55.119Z,22.20
2017-08-01T04:05:27.331Z,22.00
2017-08-01T04:08:22.707Z,22.00
2017-08-01T04:10:53.269Z,22.00
2017-08-01T04:13:23.348Z,21.90
2017-08-01T04:15:53.577Z,21.90
2017-08-01T04:18:23.670Z,21.90
2017-08-01T04:20:53.011Z,21.90
2017-08-01T04:23:22.523Z,21.90
2017-08-01T04:25:52.529Z,21.80
2017-08-01T04:28:21.851Z,21.80
2017-08-01T04:30:51.181Z,21.90
2017-08-01T04:33:20.524Z,21.90
2017-08-01T04:35:50.600Z,21.90
2017-08-01T04:38:19.927Z,21.90
2017-08-01T04:40:50.008Z,21.90
2017-08-01T04:43:19.369Z,21.90
2017-08-01T04:45:49.433Z,22.00
2017-08-01T04:48:18.861Z,22.00
2017-08-01T04:50:48.188Z,22.10
2017-08-01T04:53:18.312Z,22.10
2017-08-01T04:55:47.644Z,22.10
2017-08-01T04:58:16.980Z,22.20
2017-08-01T05:00:46.312Z,22.20
2017-08-01T05:03:16.388Z,22.40
2017-08-01T05:05:48.623Z,22.40
2017-08-01T05:08:17.928Z,22.40
2017-08-01T05:10:47.244Z,22.40
2017-08-01T05:13:16.568Z,22.30
2017-08-01T05:15:45.910Z,22.40
2017-08-01T05:18:15.977Z,22.90
2017-08-01T05:20:45.296Z,22.90
2017-08-01T05:23:14.615Z,23.10
2017-08-01T05:25:44.703Z,23.70
2017-08-01T05:28:14.018Z,23.70
2017-08-01T05:30:43.341Z,24.00
2017-08-01T05:33:12.641Z,24.50
2017-08-01T05:35:42.735Z,24.70
2017-08-01T05:38:12.042Z,24.70
2017-08-01T05:40:41.387Z,24.70
2017-08-01T05:43:10.688Z,24.60
2017-08-01T05:45:40.004Z,24.50
2017-08-01T05:48:09.328Z,24.30
2017-08-01T05:50:38.642Z,24.10
2017-08-01T05:53:07.963Z,24.00
2017-08-01T05:55:38.028Z,24.00
2017-08-01T05:58:07.361Z,23.90
2017-08-01T06:00:36.672Z,24.00
2017-08-01T06:03:05.999Z,24.00
2017-08-01T06:05:36.070Z,24.00
2017-08-01T06:08:05.400Z,24.00
2017-08-01T06:10:34.700Z,24.00
2017-08-01T06:13:04.043Z,23.90
2017-08-01T06:15:33.346Z,24.00
2017-08-01T06:18:02.826Z,24.00
2017-08-01T06:20:32.926Z,23.90
2017-08-01T06:23:02.228Z,23.90
2017-08-01T06:25:31.558Z,23.90
2017-08-01T06:28:00.864Z,23.80
2017-08-01T06:30:30.184Z,23.90
2017-08-01T06:32:59.484Z,23.90
2017-08-01T06:35:28.953Z,24.20
2017-08-01T06:37:59.019Z,24.70
2017-08-01T06:40:28.346Z,24.70
2017-08-01T06:42:57.647Z,25.10
2017-08-01T06:45:26.977Z,25.50
2017-08-01T06:47:57.058Z,26.00
2017-08-01T06:50:26.379Z,26.00
2017-08-01T06:52:55.709Z,26.30
2017-08-01T06:55:25.056Z,26.60
2017-08-01T06:57:54.368Z,26.80
2017-08-01T07:00:23.683Z,26.90
2017-08-01T07:02:53.023Z,26.70
2017-08-01T07:05:22.343Z,26.50
2017-08-01T07:07:51.660Z,26.40
2017-08-01T07:10:20.975Z,26.40
2017-08-01T07:12:50.310Z,26.60
2017-08-01T07:15:20.388Z,27.10
2017-08-01T07:17:51.770Z,27.10
2017-08-01T07:20:21.688Z,27.30
2017-08-01T07:22:51.788Z,27.50
2017-08-01T07:25:21.096Z,27.50
2017-08-01T07:27:50.451Z,27.60
2017-08-01T07:30:19.760Z,27.60
2017-08-01T07:32:49.080Z,27.70
2017-08-01T07:35:18.414Z,27.80
2017-08-01T07:37:47.715Z,27.80
2017-08-01T07:40:17.828Z,27.90
2017-08-01T07:42:47.899Z,27.90
2017-08-01T07:45:17.268Z,27.90
2017-08-01T07:47:47.345Z,28.20
2017-08-01T07:50:16.719Z,28.10
2017-08-01T07:52:46.056Z,28.20
2017-08-01T07:55:15.408Z,28.30
2017-08-01T07:57:45.468Z,28.40
2017-08-01T08:00:15.942Z,28.40
2017-08-01T08:02:45.245Z,28.50
2017-08-01T08:05:15.379Z,28.50
2017-08-01T08:07:45.440Z,28.50
2017-08-01T08:10:14.768Z,28.40
2017-08-01T08:12:44.098Z,28.40
2017-08-01T08:15:13.411Z,28.50
2017-08-01T08:17:42.737Z,28.60
2017-08-01T08:20:12.116Z,28.60
2017-08-01T08:22:41.477Z,28.60
2017-08-01T08:25:10.780Z,28.70
2017-08-01T08:27:40.111Z,28.70
2017-08-01T08:30:10.199Z,28.60
2017-08-01T08:32:39.540Z,28.50
2017-08-01T08:35:08.859Z,28.60
2017-08-01T08:37:38.164Z,28.50
2017-08-01T08:40:07.510Z,28.50
2017-08-01T08:42:36.833Z,28.70
2017-08-01T08:45:06.164Z,28.70
2017-08-01T08:47:35.468Z,28.70
2017-08-01T08:50:04.797Z,28.80
2017-08-01T08:52:34.146Z,28.80
2017-08-01T08:55:03.472Z,28.80
2017-08-01T08:57:32.788Z,28.90
2017-08-01T09:00:02.154Z,28.80
2017-08-01T09:02:31.472Z,29.00
2017-08-01T09:05:00.785Z,29.20
2017-08-01T09:07:30.105Z,29.40
2017-08-01T09:09:59.436Z,29.50
2017-08-01T09:12:29.533Z,29.50
2017-08-01T09:14:59.550Z,29.40
2017-08-01T09:17:28.877Z,29.50
2017-08-01T09:19:58.944Z,29.30
2017-08-01T09:22:28.293Z,29.20
2017-08-01T09:24:57.627Z,29.30
2017-08-01T09:27:26.956Z,29.30
2017-08-01T09:29:56.268Z,29.30
2017-08-01T09:32:25.587Z,29.40
2017-08-01T09:34:54.907Z,29.40
2017-08-01T09:37:24.225Z,29.40
2017-08-01T09:39:53.544Z,29.50
2017-08-01T09:42:22.844Z,29.40
2017-08-01T09:44:52.170Z,29.20
2017-08-01T09:47:21.473Z,29.20
2017-08-01T09:49:50.825Z,29.10
2017-08-01T09:52:20.136Z,29.10
2017-08-01T09:54:49.464Z,29.20
2017-08-01T09:57:18.795Z,29.40
2017-08-01T09:59:48.104Z,29.40
2017-08-01T10:02:17.440Z,29.40
2017-08-01T10:04:46.748Z,29.50
2017-08-01T10:07:16.064Z,29.50
2017-08-01T10:09:45.371Z,29.60
2017-08-01T10:12:14.732Z,29.80
2017-08-01T10:14:44.813Z,30.10
2017-08-01T10:17:14.175Z,30.10
2017-08-01T10:19:43.511Z,30.20
2017-08-01T10:22:12.824Z,30.20
2017-08-01T10:24:42.196Z,30.20
2017-08-01T10:27:11.497Z,30.10
2017-08-01T10:29:40.821Z,30.00
2017-08-01T10:32:10.126Z,29.70
2017-08-01T10:34:39.495Z,29.80
2017-08-01T10:37:08.803Z,29.90
2017-08-01T10:39:38.132Z,29.80
2017-08-01T10:42:07.576Z,30.00
2017-08-01T10:44:37.753Z,30.30
2017-08-01T10:47:07.052Z,30.30
2017-08-01T10:49:36.411Z,30.50
2017-08-01T10:52:05.760Z,30.60
2017-08-01T10:54:35.059Z,30.80
2017-08-01T10:57:04.398Z,30.80
2017-08-01T10:59:33.728Z,31.00
2017-08-01T11:02:03.132Z,31.00
2017-08-01T11:04:32.435Z,31.10
2017-08-01T11:07:01.763Z,31.20
2017-08-01T11:09:31.064Z,31.40
2017-08-01T11:12:00.390Z,31.20
2017-08-01T11:14:29.687Z,31.00
2017-08-01T11:16:59.016Z,30.90
2017-08-01T11:19:29.092Z,31.20
2017-08-01T11:21:58.408Z,31.10
2017-08-01T11:24:27.725Z,31.20
2017-08-01T11:26:57.037Z,31.20
2017-08-01T11:29:27.112Z,31.10
2017-08-01T11:31:56.413Z,31.10
2017-08-01T11:34:25.739Z,31.00
2017-08-01T11:36:55.027Z,30.90
2017-08-01T11:39:24.351Z,30.90
2017-08-01T11:41:54.425Z,31.00
2017-08-01T11:44:23.768Z,31.00
2017-08-01T11:46:53.077Z,31.10
2017-08-01T11:49:23.220Z,31.30
2017-08-01T11:51:52.524Z,31.40
2017-08-01T11:54:22.109Z,31.40
2017-08-01T11:56:52.214Z,31.60
2017-08-01T11:59:21.551Z,31.50
2017-08-01T12:01:51.697Z,31.40
2017-08-01T12:04:20.978Z,31.40
2017-08-01T12:06:50.302Z,31.40
2017-08-01T12:09:19.632Z,31.50
2017-08-01T12:11:48.936Z,31.40
2017-08-01T12:14:18.259Z,31.50
2017-08-01T12:16:48.360Z,31.70
2017-08-01T12:19:17.684Z,31.60
2017-08-01T12:21:47.019Z,31.60
2017-08-01T12:24:16.406Z,31.60
2017-08-01T12:26:45.728Z,31.70
2017-08-01T12:29:15.048Z,31.70
2017-08-01T12:31:44.351Z,31.80
2017-08-01T12:34:13.681Z,31.80
2017-08-01T12:36:42.984Z,31.80
2017-08-01T12:39:13.075Z,31.50
2017-08-01T12:41:42.378Z,31.50
2017-08-01T12:44:11.696Z,31.40
2017-08-01T12:46:41.067Z,31.20
2017-08-01T12:49:10.403Z,31.20
2017-08-01T12:51:39.712Z,31.20
2017-08-01T12:54:09.024Z,31.20
2017-08-01T12:56:39.112Z,31.20
2017-08-01T12:59:08.413Z,31.20
2017-08-01T13:01:37.727Z,31.20
2017-08-01T13:04:07.027Z,31.20
2017-08-01T13:06:36.368Z,31.30
2017-08-01T13:09:05.670Z,31.30
2017-08-01T13:11:34.988Z,31.30
2017-08-01T13:14:04.300Z,31.20
2017-08-01T13:16:33.615Z,31.30
2017-08-01T13:19:02.916Z,31.40
2017-08-01T13:21:32.246Z,31.50
2017-08-01T13:24:01.552Z,31.60
2017-08-01T13:26:31.639Z,31.70
2017-08-01T13:29:00.947Z,31.70
2017-08-01T13:31:30.255Z,31.70
2017-08-01T13:33:59.592Z,31.70
2017-08-01T13:36:28.908Z,31.80
2017-08-01T13:38:58.219Z,31.80
2017-08-01T13:41:27.569Z,31.90
2017-08-01T13:43:56.875Z,32.00
2017-08-01T13:46:26.181Z,32.00
2017-08-01T13:48:56.272Z,32.00
2017-08-01T13:51:25.567Z,32.00
2017-08-01T13:53:54.892Z,32.00
2017-08-01T13:56:24.199Z,32.00
2017-08-01T13:58:53.557Z,32.00
2017-08-01T14:01:22.887Z,31.90
2017-08-01T14:03:52.222Z,31.90
2017-08-01T14:06:22.280Z,31.90
2017-08-01T14:08:51.600Z,31.90
2017-08-01T14:11:20.915Z,32.00
2017-08-01T14:13:50.228Z,31.90
2017-08-01T14:16:19.548Z,31.80
2017-08-01T14:18:49.616Z,31.80
2017-08-01T14:21:18.997Z,31.80
2017-08-01T14:23:48.292Z,31.70
2017-08-01T14:26:17.607Z,31.80
2017-08-01T14:28:46.899Z,31.70
2017-08-01T14:31:16.215Z,31.70
2017-08-01T14:33:45.516Z,31.60
2017-08-01T14:36:14.834Z,31.50
2017-08-01T14:38:44.128Z,31.50
2017-08-01T14:41:13.444Z,31.30
2017-08-01T14:43:42.760Z,30.90
2017-08-01T14:46:12.064Z,29.90
2017-08-01T14:48:41.395Z,29.00
2017-08-01T14:51:10.702Z,28.60
2017-08-01T14:53:40.016Z,28.10
2017-08-01T14:56:09.315Z,27.80
2017-08-01T14:58:38.645Z,27.40
2017-08-01T15:01:08.647Z,26.60
2017-08-01T15:03:37.959Z,26.10
2017-08-01T15:06:07.284Z,25.80
2017-08-01T15:08:36.624Z,25.70
2017-08-01T15:11:05.921Z,25.80
2017-08-01T15:13:36.016Z,25.80
2017-08-01T15:16:06.087Z,25.90
2017-08-01T15:18:35.410Z,25.90
2017-08-01T15:21:04.729Z,26.10
2017-08-01T15:23:34.823Z,26.20
2017-08-01T15:26:04.148Z,26.20
2017-08-01T15:28:33.447Z,26.30
2017-08-01T15:31:02.789Z,26.40
2017-08-01T15:33:32.120Z,26.60
2017-08-01T15:36:01.439Z,26.60
2017-08-01T15:38:30.779Z,26.60
2017-08-01T15:41:00.853Z,26.80
2017-08-01T15:43:30.165Z,26.80
2017-08-01T15:45:59.613Z,26.80
2017-08-01T15:48:28.947Z,26.90
2017-08-01T15:51:05.524Z,27.10
2017-08-01T15:53:41.900Z,27.20
2017-08-01T15:59:13.303Z,27.30
2017-08-01T16:01:47.116Z,27.30
2017-08-01T16:04:16.562Z,27.30
2017-08-01T16:06:45.888Z,27.30
2017-08-01T16:09:15.208Z,27.30
2017-08-01T16:11:44.515Z,27.30
2017-08-01T16:14:14.609Z,27.30
2017-08-01T16:16:43.911Z,27.30
2017-08-01T16:19:13.240Z,27.20
2017-08-01T16:21:42.548Z,27.30
2017-08-01T16:24:11.864Z,27.20
2017-08-01T16:26:41.191Z,27.20
2017-08-01T16:29:10.527Z,27.30
2017-08-01T16:31:39.836Z,27.20
2017-08-01T16:34:09.170Z,27.30
2017-08-01T16:36:38.476Z,27.20
2017-08-01T16:39:07.809Z,27.20
2017-08-01T16:41:37.115Z,27.20
2017-08-01T16:44:06.460Z,27.20
2017-08-01T16:46:35.884Z,27.10
2017-08-01T16:49:05.312Z,27.30
2017-08-01T16:51:36.542Z,27.30
2017-08-01T16:54:05.877Z,27.30
2017-08-01T16:56:35.968Z,27.40
2017-08-01T16:59:05.284Z,27.40
2017-08-01T17:01:35.381Z,27.40
2017-08-01T17:04:04.700Z,27.30
2017-08-01T17:06:34.061Z,27.40
2017-08-01T17:09:03.365Z,27.50
2017-08-01T17:11:32.700Z,27.40
2017-08-01T17:14:02.024Z,27.40
2017-08-01T17:16:31.340Z,27.40
2017-08-01T17:19:00.673Z,27.30
2017-08-01T17:21:29.998Z,27.10
2017-08-01T17:23:59.329Z,27.00
2017-08-01T17:26:28.636Z,27.00
2017-08-01T17:28:57.994Z,27.00
2017-08-01T17:31:27.308Z,27.00
2017-08-01T17:33:56.660Z,27.00
2017-08-01T17:36:26.741Z,27.00
2017-08-01T17:38:56.094Z,27.00
2017-08-01T17:41:25.422Z,27.00
2017-08-01T17:43:54.798Z,27.10
2017-08-01T17:46:24.132Z,27.20
2017-08-01T17:48:53.449Z,27.20
2017-08-01T17:51:22.781Z,27.20
2017-08-01T17:53:52.092Z,27.20
2017-08-01T17:56:22.201Z,27.00
2017-08-01T17:58:51.546Z,27.00
2017-08-01T18:01:20.888Z,27.00
2017-08-01T18:03:50.221Z,27.00
2017-08-01T18:06:19.567Z,27.00
2017-08-01T18:08:48.885Z,27.00
2017-08-01T18:11:18.243Z,26.90
2017-08-01T18:13:47.595Z,26.90
2017-08-01T18:16:17.719Z,26.80
2017-08-01T18:18:47.085Z,26.80
2017-08-01T18:21:16.384Z,26.70
2017-08-01T18:23:45.720Z,26.60
2017-08-01T18:26:15.047Z,26.50
2017-08-01T18:28:44.380Z,26.50
2017-08-01T18:31:13.687Z,26.30
2017-08-01T18:33:43.053Z,26.10
2017-08-01T18:36:13.484Z,25.90
2017-08-01T18:38:43.601Z,25.80
2017-08-01T18:41:13.688Z,25.70
2017-08-01T18:43:43.320Z,25.70
2017-08-01T18:46:12.636Z,25.70
2017-08-01T18:48:42.748Z,25.50
2017-08-01T18:51:12.868Z,25.30
2017-08-01T18:53:42.978Z,24.70
2017-08-01T18:56:12.313Z,24.60
2017-08-01T18:58:41.628Z,24.10
2017-08-01T19:01:11.016Z,23.80
2017-08-01T19:03:40.319Z,23.70
2017-08-01T19:06:10.413Z,23.80
2017-08-01T19:08:40.484Z,23.80
2017-08-01T19:11:09.826Z,23.90
2017-08-01T19:13:39.149Z,23.90
2017-08-01T19:16:08.501Z,23.70
2017-08-01T19:18:37.814Z,23.70
2017-08-01T19:21:07.873Z,23.60
2017-08-01T19:23:37.201Z,23.70
2017-08-01T19:26:06.536Z,23.70
2017-08-01T19:28:35.881Z,23.80
2017-08-01T19:31:11.157Z,23.90
2017-08-01T19:33:40.493Z,23.90
2017-08-01T19:36:09.871Z,23.90
2017-08-01T19:38:39.213Z,23.90
2017-08-01T19:41:09.350Z,23.90
2017-08-01T19:43:39.424Z,23.90
2017-08-01T19:46:08.748Z,23.80
2017-08-01T19:48:38.085Z,23.90
2017-08-01T19:51:07.914Z,23.90
2017-08-01T19:53:37.309Z,23.90
2017-08-01T19:56:06.615Z,23.90
2017-08-01T19:58:36.017Z,23.90
2017-08-01T20:01:05.348Z,23.80
2017-08-01T20:03:34.665Z,23.80
2017-08-01T20:06:04.065Z,23.80
2017-08-01T20:08:33.382Z,23.90
2017-08-01T20:11:02.722Z,23.80
2017-08-01T20:13:32.041Z,23.70
2017-08-01T20:16:01.419Z,23.80
2017-08-01T20:18:30.729Z,23.80
2017-08-01T20:21:00.075Z,23.80
2017-08-01T20:23:29.397Z,23.90
2017-08-01T20:25:59.496Z,23.80
2017-08-01T20:28:28.833Z,23.70
2017-08-01T20:30:58.148Z,23.80
2017-08-01T20:33:27.476Z,23.90
2017-08-01T20:35:56.839Z,23.90
2017-08-01T20:38:26.172Z,23.80
2017-08-01T20:40:55.488Z,23.80
2017-08-01T20:43:24.829Z,23.80
2017-08-01T20:45:54.150Z,23.80
2017-08-01T20:48:23.476Z,23.80
2017-08-01T20:50:52.785Z,23.70
2017-08-01T20:53:22.129Z,23.40
2017-08-01T20:55:51.471Z,23.20
2017-08-01T20:58:20.784Z,23.10
2017-08-01T21:00:50.124Z,23.00
2017-08-01T21:03:19.448Z,23.00
2017-08-01T21:05:49.547Z,22.90
2017-08-01T21:08:18.884Z,22.90
2017-08-01T21:10:48.216Z,22.80
2017-08-01T21:13:17.525Z,22.70
2017-08-01T21:15:46.862Z,22.60
2017-08-01T21:18:16.240Z,22.70
2017-08-01T21:20:45.569Z,22.70
2017-08-01T21:23:15.652Z,22.70
2017-08-01T21:25:44.996Z,22.70
2017-08-01T21:28:15.084Z,22.80
2017-08-01T21:30:44.425Z,22.70
2017-08-01T21:33:14.505Z,22.80
2017-08-01T21:35:43.852Z,22.70
2017-08-01T21:38:13.950Z,22.80
2017-08-01T21:40:43.267Z,22.80
2017-08-01T21:43:13.390Z,22.90
2017-08-01T21:45:42.704Z,22.80
2017-08-01T21:48:12.049Z,22.90
2017-08-01T21:50:41.368Z,22.90
2017-08-01T21:53:10.708Z,23.00
2017-08-01T21:55:40.015Z,23.10
2017-08-01T21:58:09.350Z,23.10
2017-08-01T22:00:38.668Z,23.10
2017-08-01T22:03:08.010Z,23.10
2017-08-01T22:05:37.317Z,23.10
2017-08-01T22:08:06.649Z,23.10
2017-08-01T22:10:35.972Z,23.10
2017-08-01T22:13:05.334Z,23.10
2017-08-01T22:15:34.640Z,23.00
2017-08-01T22:18:03.961Z,23.00
2017-08-01T22:20:33.288Z,23.00
2017-08-01T22:23:02.603Z,23.00
2017-08-01T22:25:31.939Z,23.10
2017-08-01T22:28:01.244Z,23.10
2017-08-01T22:30:30.573Z,23.10
2017-08-01T22:32:59.881Z,23.20
2017-08-01T22:35:29.200Z,23.20
2017-08-01T22:37:58.508Z,23.20
2017-08-01T22:40:27.844Z,23.20
2017-08-01T22:42:57.162Z,23.30
2017-08-01T22:45:26.489Z,23.20
2017-08-01T22:47:55.803Z,23.10
2017-08-01T22:50:25.151Z,23.10
2017-08-01T22:52:54.466Z,23.10
2017-08-01T22:55:23.780Z,23.10
2017-08-01T22:57:53.104Z,23.10
2017-08-01T23:00:22.412Z,23.10
2017-08-01T23:02:51.745Z,23.10
2017-08-01T23:05:21.810Z,23.20
2017-08-01T23:07:51.135Z,23.20
2017-08-01T23:10:20.448Z,23.20
2017-08-01T23:12:49.768Z,23.20
2017-08-01T23:15:19.084Z,23.20
2017-08-01T23:17:48.417Z,23.20
2017-08-01T23:20:17.729Z,23.20
2017-08-01T23:22:47.065Z,23.20
2017-08-01T23:25:17.145Z,23.10
2017-08-01T23:27:46.484Z,23.10
2017-08-01T23:30:16.565Z,23.00
2017-08-01T23:32:45.921Z,23.00
2017-08-01T23:35:15.233Z,23.00
2017-08-01T23:37:44.544Z,23.10
2017-08-01T23:40:13.940Z,23.10
2017-08-01T23:42:43.256Z,23.10
2017-08-01T23:45:12.580Z,23.10
2017-08-01T23:47:41.905Z,23.20
2017-08-01T23:50:11.228Z,23.20
2017-08-01T23:52:41.308Z,23.20
2017-08-01T23:55:10.642Z,23.10
2017-08-01T23:57:39.953Z,23.20
